Mystic, Georgia
Current Conditions -  °F | °C
As of 2:55 PM on Sunday 23 Nov 2014 (Local Time) from KFZG Reporting Station
Haze Haze  
Wind Chill: 73°   Ceiling: 400
Heat Index: 73°   Visibility: 5mi
Dew Point: 70°   Wind: 8mph
Humidity: 91%   Direction: 180°S
Pressure: 29.81"   Gusts: NA
Location:  31.62°N, 83.34°W
Report Text: KFZG 231955Z AUTO 18007KT 5SM BR OVC004 23/21 A2981 RMK AO2 T02250210
Loading
Personal Weather Stations






























Interactive Weather Map New forecast layout! Learn more

10-Day Weather Forecast

Advertisements
Track Severe Weather on mobile